createdAt,value
2023-04-17T00:00:39.923Z,100153.50
2023-04-17T00:03:42.577Z,100161.25
2023-04-17T00:06:45.573Z,100152.13
2023-04-17T00:09:48.945Z,100152.31
2023-04-17T00:12:51.724Z,100153.88
2023-04-17T00:15:54.127Z,100152.66
2023-04-17T00:18:56.983Z,100151.31
2023-04-17T00:21:59.620Z,100145.97
2023-04-17T00:25:02.563Z,100157.16
2023-04-17T00:28:05.587Z,100148.22
2023-04-17T00:31:08.701Z,100156.56
2023-04-17T00:34:11.337Z,100150.31
2023-04-17T00:37:14.494Z,100146.41
2023-04-17T00:40:17.110Z,100151.59
2023-04-17T00:43:20.213Z,100148.94
2023-04-17T00:46:22.796Z,100152.56
2023-04-17T00:49:27.693Z,100153.69
2023-04-17T00:52:30.947Z,100162.69
2023-04-17T00:55:35.968Z,100168.47
2023-04-17T00:58:40.111Z,100166.88
2023-04-17T01:01:42.832Z,100164.69
2023-04-17T01:04:45.987Z,100157.44
2023-04-17T01:07:48.667Z,100154.31
2023-04-17T01:10:51.459Z,100158.09
2023-04-17T01:13:54.482Z,100155.44
2023-04-17T01:16:58.230Z,100156.56
2023-04-17T01:20:01.392Z,100149.66
2023-04-17T01:23:05.127Z,100155.31
2023-04-17T01:26:08.017Z,100146.84
2023-04-17T01:29:11.418Z,100155.31
2023-04-17T01:32:14.937Z,100148.09
2023-04-17T01:35:18.029Z,100147.94
2023-04-17T01:38:21.182Z,100154.06
2023-04-17T01:41:23.810Z,100137.72
2023-04-17T01:44:26.879Z,100143.53
2023-04-17T01:47:30.576Z,100144.31
2023-04-17T01:50:33.981Z,100141.31
2023-04-17T01:53:38.045Z,100144.50
2023-04-17T01:56:40.767Z,100145.34
2023-04-17T01:59:43.398Z,100141.88
2023-04-17T02:02:46.395Z,100149.91
2023-04-17T02:05:49.178Z,100147.88
2023-04-17T02:08:52.236Z,100151.19
2023-04-17T02:11:55.045Z,100151.34
2023-04-17T02:15:01.404Z,100159.03
2023-04-17T02:18:08.336Z,100155.91
2023-04-17T02:21:11.845Z,100158.31
2023-04-17T02:24:14.635Z,100158.78
2023-04-17T02:27:17.849Z,100158.78
2023-04-17T02:30:20.749Z,100161.16
2023-04-17T02:33:23.685Z,100158.34
2023-04-17T02:36:27.302Z,100163.53
2023-04-17T02:39:31.988Z,100152.41
2023-04-17T02:42:34.473Z,100151.47
2023-04-17T02:45:39.795Z,100152.72
2023-04-17T02:48:42.300Z,100157.28
2023-04-17T02:51:45.819Z,100161.81
2023-04-17T02:54:48.521Z,100162.44
2023-04-17T02:57:53.067Z,100156.66
2023-04-17T03:01:05.175Z,100153.81
2023-04-17T03:04:13.399Z,100150.38
2023-04-17T03:07:19.683Z,100149.91
2023-04-17T03:10:33.842Z,100154.00
2023-04-17T03:13:39.111Z,100161.50
2023-04-17T03:16:42.020Z,100163.25
2023-04-17T03:19:44.931Z,100168.59
2023-04-17T03:22:48.111Z,100162.81
2023-04-17T03:25:51.168Z,100154.81
2023-04-17T03:28:54.094Z,100164.25
2023-04-17T03:31:56.858Z,100165.81
2023-04-17T03:34:59.833Z,100159.53
2023-04-17T03:38:02.955Z,100174.13
2023-04-17T03:41:05.890Z,100166.91
2023-04-17T03:44:09.195Z,100173.19
2023-04-17T03:47:12.030Z,100172.09
2023-04-17T03:50:16.293Z,100175.84
2023-04-17T03:53:31.582Z,100176.31
2023-04-17T03:56:37.849Z,100168.16
2023-04-17T03:59:40.574Z,100169.41
2023-04-17T04:02:43.964Z,100174.13
2023-04-17T04:05:46.854Z,100179.94
2023-04-17T04:08:49.673Z,100175.69
2023-04-17T04:11:53.824Z,100186.81
2023-04-17T04:14:56.361Z,100193.91
2023-04-17T04:18:00.068Z,100199.69
2023-04-17T04:21:02.862Z,100207.81
2023-04-17T04:24:10.425Z,100204.25
2023-04-17T04:27:13.316Z,100203.16
2023-04-17T04:30:17.302Z,100211.16
2023-04-17T04:33:22.019Z,100207.97
2023-04-17T04:36:25.460Z,100216.44
2023-04-17T04:39:40.324Z,100208.44
2023-04-17T04:42:50.121Z,100205.31
2023-04-17T04:46:03.834Z,100215.66
2023-04-17T04:49:10.862Z,100217.22
2023-04-17T04:52:13.528Z,100215.66
2023-04-17T04:55:16.508Z,100223.19
2023-04-17T04:58:24.579Z,100219.44
2023-04-17T05:02:44.114Z,100234.50
2023-04-17T05:05:47.762Z,100218.00
2023-04-17T05:08:56.966Z,100219.69
2023-04-17T05:12:01.561Z,100219.38
2023-04-17T05:15:04.631Z,100212.16
2023-04-17T05:18:07.526Z,100224.88
2023-04-17T05:21:11.013Z,100224.84
2023-04-17T05:24:14.992Z,100230.69
2023-04-17T05:27:18.008Z,100236.78
2023-04-17T05:30:20.963Z,100233.50
2023-04-17T05:33:28.687Z,100233.97
2023-04-17T05:36:35.800Z,100238.31
2023-04-17T05:39:40.502Z,100236.13
2023-04-17T05:42:44.302Z,100239.78
2023-04-17T05:45:47.819Z,100235.03
2023-04-17T05:48:50.532Z,100245.22
2023-04-17T05:51:53.741Z,100250.25
2023-04-17T05:54:56.848Z,100255.91
2023-04-17T05:58:03.858Z,100260.78
2023-04-17T06:01:13.131Z,100258.44
2023-04-17T06:04:17.351Z,100256.88
2023-04-17T06:07:22.284Z,100267.69
2023-04-17T06:10:26.032Z,100261.25
2023-04-17T06:13:28.644Z,100269.56
2023-04-17T06:16:32.439Z,100268.00
2023-04-17T06:19:35.190Z,100266.59
2023-04-17T06:22:39.210Z,100279.34
2023-04-17T06:25:41.775Z,100277.72
2023-04-17T06:28:44.436Z,100279.94
2023-04-17T06:31:47.663Z,100278.66
2023-04-17T06:34:59.422Z,100277.56
2023-04-17T06:38:28.599Z,100267.97
2023-04-17T06:41:32.458Z,100279.91
2023-04-17T06:44:36.780Z,100277.25
2023-04-17T06:47:39.302Z,100279.13
2023-04-17T06:50:41.825Z,100281.00
2023-04-17T06:53:44.711Z,100285.53
2023-04-17T06:56:47.562Z,100289.31
2023-04-17T06:59:50.723Z,100295.25
2023-04-17T07:02:53.547Z,100298.06
2023-04-17T07:05:56.413Z,100296.03
2023-04-17T07:08:59.045Z,100303.88
2023-04-17T07:12:01.727Z,100300.28
2023-04-17T07:15:04.713Z,100295.69
2023-04-17T07:18:07.515Z,100304.34
2023-04-17T07:21:10.449Z,100299.59
2023-04-17T07:24:13.276Z,100300.03
2023-04-17T07:27:16.056Z,100308.16
2023-04-17T07:30:18.656Z,100303.03
2023-04-17T07:33:21.811Z,100313.88
2023-04-17T07:36:24.450Z,100308.38
2023-04-17T07:39:30.648Z,100315.78
2023-04-17T07:42:33.198Z,100311.38
2023-04-17T07:45:38.497Z,100313.19
2023-04-17T07:48:42.421Z,100316.66
2023-04-17T07:51:45.021Z,100315.75
2023-04-17T07:54:48.101Z,100315.47
2023-04-17T07:57:51.872Z,100323.47
2023-04-17T08:00:54.515Z,100328.41
2023-04-17T08:03:58.585Z,100316.78
2023-04-17T08:07:01.732Z,100324.19
2023-04-17T08:10:05.332Z,100318.97
2023-04-17T08:13:08.258Z,100319.44
2023-04-17T08:16:11.168Z,100328.44
2023-04-17T08:19:14.175Z,100327.03
2023-04-17T08:22:17.179Z,100328.06
2023-04-17T08:25:19.739Z,100328.38
2023-04-17T08:28:28.924Z,100331.44
2023-04-17T08:31:31.868Z,100328.69
2023-04-17T08:34:36.216Z,100330.88
2023-04-17T08:37:39.916Z,100332.38
2023-04-17T08:40:43.139Z,100324.88
2023-04-17T08:43:51.398Z,100334.25
2023-04-17T08:46:57.528Z,100326.19
2023-04-17T08:50:07.194Z,100327.78
2023-04-17T08:53:09.837Z,100316.56
2023-04-17T08:56:12.424Z,100312.47
2023-04-17T08:59:17.157Z,100314.16
2023-04-17T09:02:19.940Z,100308.59
2023-04-17T09:05:24.290Z,100291.41
2023-04-17T09:08:29.184Z,100317.41
2023-04-17T09:11:32.350Z,100304.94
2023-04-17T09:14:35.221Z,100298.13
2023-04-17T09:17:37.976Z,100296.44
2023-04-17T09:20:51.450Z,100296.75
2023-04-17T09:23:56.615Z,100300.78
2023-04-17T09:27:22.749Z,100303.19
2023-04-17T09:30:27.015Z,100303.28
2023-04-17T09:33:30.104Z,100294.03
2023-04-17T09:36:35.224Z,100296.31
2023-04-17T09:39:40.090Z,100290.69
2023-04-17T09:43:34.967Z,100289.31
2023-04-17T09:46:52.318Z,100290.75
2023-04-17T09:49:55.922Z,100287.13
2023-04-17T09:52:58.893Z,100281.47
2023-04-17T09:56:01.642Z,100285.25
2023-04-17T09:59:05.725Z,100286.03
2023-04-17T10:02:12.595Z,100282.94
2023-04-17T10:05:16.235Z,100285.47
2023-04-17T10:08:19.361Z,100284.00
2023-04-17T10:11:25.363Z,100284.22
2023-04-17T10:14:32.611Z,100283.22
2023-04-17T10:17:35.568Z,100288.59
2023-04-17T10:20:38.881Z,100289.81
2023-04-17T10:23:41.629Z,100291.59
2023-04-17T10:26:44.090Z,100284.34
2023-04-17T10:29:58.048Z,100282.00
2023-04-17T10:33:12.614Z,100282.09
2023-04-17T10:36:40.507Z,100277.84
2023-04-17T10:39:52.772Z,100274.72
2023-04-17T10:43:07.044Z,100276.47
2023-04-17T10:46:12.393Z,100279.81
2023-04-17T10:49:15.268Z,100276.78
2023-04-17T10:52:39.956Z,100274.19
2023-04-17T10:55:51.573Z,100271.50
2023-04-17T10:58:58.742Z,100274.00
2023-04-17T11:02:04.599Z,100274.34
2023-04-17T11:05:08.138Z,100264.50
2023-04-17T11:08:11.824Z,100263.78
2023-04-17T11:11:18.582Z,100267.91
2023-04-17T11:14:26.776Z,100265.81
2023-04-17T11:17:29.626Z,100257.09
2023-04-17T11:20:33.829Z,100261.34
2023-04-17T11:23:37.618Z,100259.66
2023-04-17T11:26:47.945Z,100259.44
2023-04-17T11:29:50.612Z,100262.66
2023-04-17T11:32:53.800Z,100267.72
2023-04-17T11:35:56.350Z,100256.53
2023-04-17T11:38:59.222Z,100249.47
2023-04-17T11:42:05.134Z,100253.34
2023-04-17T11:45:08.181Z,100257.09
2023-04-17T11:48:12.906Z,100251.97
2023-04-17T11:51:18.411Z,100245.28
2023-04-17T11:54:41.535Z,100247.56
2023-04-17T11:57:44.720Z,100245.13
2023-04-17T12:01:05.490Z,100237.38
2023-04-17T12:04:21.985Z,100232.75
2023-04-17T12:07:24.888Z,100239.28
2023-04-17T12:10:44.666Z,100236.44
2023-04-17T12:13:47.034Z,100224.09
2023-04-17T12:16:51.928Z,100224.41
2023-04-17T12:19:54.430Z,100218.81
2023-04-17T12:22:57.137Z,100213.69
2023-04-17T12:25:59.714Z,100210.78
2023-04-17T12:29:02.372Z,100202.72
2023-04-17T12:32:05.065Z,100208.53
2023-04-17T12:35:08.044Z,100214.72
2023-04-17T12:38:10.741Z,100219.09
2023-04-17T12:41:13.454Z,100204.69
2023-04-17T12:44:15.860Z,100206.63
2023-04-17T12:47:18.613Z,100201.59
2023-04-17T12:50:21.211Z,100195.09
2023-04-17T12:53:24.187Z,100198.50
2023-04-17T12:56:27.232Z,100194.47
2023-04-17T12:59:29.962Z,100194.25
2023-04-17T13:02:33.090Z,100203.66
2023-04-17T13:05:36.245Z,100197.44
2023-04-17T13:08:39.162Z,100201.03
2023-04-17T13:11:41.853Z,100193.69
2023-04-17T13:14:44.370Z,100193.38
2023-04-17T13:17:46.938Z,100184.59
2023-04-17T13:20:49.582Z,100184.22
2023-04-17T13:23:52.284Z,100188.13
2023-04-17T13:26:58.188Z,100179.50
2023-04-17T13:30:01.144Z,100190.34
2023-04-17T13:33:03.854Z,100186.44
2023-04-17T13:36:07.556Z,100182.97
2023-04-17T13:39:10.970Z,100173.16
2023-04-17T13:42:15.967Z,100174.00
2023-04-17T13:45:18.929Z,100174.41
2023-04-17T13:48:21.512Z,100171.56
2023-04-17T13:51:24.138Z,100171.63
2023-04-17T13:54:26.659Z,100180.09
2023-04-17T13:57:29.387Z,100183.13
2023-04-17T14:00:32.022Z,100186.13
2023-04-17T14:03:35.784Z,100184.16
2023-04-17T14:06:40.102Z,100182.88
2023-04-17T14:09:43.083Z,100180.28
2023-04-17T14:12:45.810Z,100174.41
2023-04-17T14:15:48.702Z,100188.22
2023-04-17T14:18:52.076Z,100182.19
2023-04-17T14:21:54.914Z,100190.97
2023-04-17T14:24:57.470Z,100181.81
2023-04-17T14:28:00.512Z,100178.28
2023-04-17T14:31:03.089Z,100176.03
2023-04-17T14:34:05.973Z,100171.94
2023-04-17T14:37:08.457Z,100173.78
2023-04-17T14:40:11.774Z,100175.38
2023-04-17T14:43:14.397Z,100170.94
2023-04-17T14:46:17.143Z,100175.44
2023-04-17T14:49:20.535Z,100180.31
2023-04-17T14:52:23.346Z,100172.16
2023-04-17T14:55:26.005Z,100175.00
2023-04-17T14:58:28.741Z,100180.03
2023-04-17T15:01:32.035Z,100176.44
2023-04-17T15:04:34.976Z,100178.91
2023-04-17T15:07:37.614Z,100169.16
2023-04-17T15:10:50.872Z,100178.34
2023-04-17T15:13:54.104Z,100180.56
2023-04-17T15:16:58.668Z,100169.09
2023-04-17T15:20:01.485Z,100173.31
2023-04-17T15:23:04.640Z,100165.63
2023-04-17T15:26:07.342Z,100167.63
2023-04-17T15:29:10.210Z,100159.94
2023-04-17T15:32:13.159Z,100170.19
2023-04-17T15:35:15.838Z,100172.41
2023-04-17T15:38:18.481Z,100161.81
2023-04-17T15:41:21.303Z,100161.59
2023-04-17T15:44:23.853Z,100171.41
2023-04-17T15:47:26.522Z,100174.44
2023-04-17T15:50:29.044Z,100183.16
2023-04-17T15:53:32.445Z,100181.47
2023-04-17T15:56:34.869Z,100181.25
2023-04-17T15:59:37.948Z,100186.50
2023-04-17T16:02:40.627Z,100183.81
2023-04-17T16:05:43.671Z,100189.72
2023-04-17T16:08:46.582Z,100186.16
2023-04-17T16:11:49.310Z,100186.28
2023-04-17T16:14:51.749Z,100191.50
2023-04-17T16:17:54.466Z,100189.03
2023-04-17T16:20:57.026Z,100178.34
2023-04-17T16:24:00.232Z,100186.34
2023-04-17T16:27:03.092Z,100190.03
2023-04-17T16:30:08.070Z,100194.09
2023-04-17T16:33:10.652Z,100194.75
2023-04-17T16:36:13.259Z,100200.25
2023-04-17T16:39:15.918Z,100200.91
2023-04-17T16:42:18.788Z,100198.84
2023-04-17T16:45:21.415Z,100198.34
2023-04-17T16:48:24.569Z,100200.03
2023-04-17T16:51:27.777Z,100199.56
2023-04-17T16:54:30.989Z,100198.78
2023-04-17T16:57:38.170Z,100197.53
2023-04-17T17:00:40.984Z,100191.94
2023-04-17T17:03:45.033Z,100195.72
2023-04-17T17:06:47.855Z,100201.84
2023-04-17T17:09:50.605Z,100206.44
2023-04-17T17:12:53.347Z,100199.84
2023-04-17T17:15:56.029Z,100204.22
2023-04-17T17:19:00.326Z,100202.97
2023-04-17T17:22:02.734Z,100205.66
2023-04-17T17:25:05.984Z,100206.19
2023-04-17T17:28:08.438Z,100201.19
2023-04-17T17:31:11.810Z,100210.50
2023-04-17T17:37:20.678Z,100208.94
2023-04-17T17:40:23.084Z,100209.72
2023-04-17T17:43:26.929Z,100215.53
2023-04-17T17:46:30.616Z,100219.44
2023-04-17T17:49:33.402Z,100231.56
2023-04-17T17:52:36.059Z,100219.44
2023-04-17T17:55:39.409Z,100220.41
2023-04-17T17:58:42.240Z,100225.78
2023-04-17T18:01:45.177Z,100227.66
2023-04-17T18:04:48.209Z,100240.00
2023-04-17T18:07:50.919Z,100241.44
2023-04-17T18:10:53.633Z,100239.09
2023-04-17T18:13:57.369Z,100255.00
2023-04-17T18:17:00.116Z,100245.22
2023-04-17T18:20:03.785Z,100246.53
2023-04-17T18:23:06.577Z,100249.84
2023-04-17T18:26:09.680Z,100246.53
2023-04-17T18:29:12.393Z,100255.00
2023-04-17T18:32:15.566Z,100244.38
2023-04-17T18:35:18.169Z,100241.69
2023-04-17T18:38:21.185Z,100244.03
2023-04-17T18:41:26.261Z,100239.47
2023-04-17T18:44:30.639Z,100234.81
2023-04-17T18:47:33.273Z,100236.69
2023-04-17T18:50:38.676Z,100232.66
2023-04-17T18:53:41.451Z,100230.28
2023-04-17T18:56:44.685Z,100240.84
2023-04-17T18:59:47.613Z,100233.28
2023-04-17T19:02:50.706Z,100236.16
2023-04-17T19:05:53.728Z,100237.25
2023-04-17T19:08:57.388Z,100232.69
2023-04-17T19:12:00.717Z,100233.81
2023-04-17T19:15:04.460Z,100244.38
2023-04-17T19:18:08.832Z,100239.03
2023-04-17T19:21:11.884Z,100233.69
2023-04-17T19:24:15.417Z,100239.69
2023-04-17T19:27:18.600Z,100248.81
2023-04-17T19:30:21.490Z,100238.13
2023-04-17T19:33:24.723Z,100245.22
2023-04-17T19:36:28.161Z,100241.63
2023-04-17T19:39:31.683Z,100248.53
2023-04-17T19:42:34.225Z,100246.84
2023-04-17T19:45:37.339Z,100245.28
2023-04-17T19:48:41.566Z,100251.91
2023-04-17T19:51:44.760Z,100242.00
2023-04-17T19:54:48.201Z,100239.31
2023-04-17T19:57:52.382Z,100244.69
2023-04-17T20:00:54.948Z,100242.63
2023-04-17T20:03:59.392Z,100241.84
2023-04-17T20:07:02.142Z,100249.72
2023-04-17T20:10:07.085Z,100247.25
2023-04-17T20:13:13.296Z,100252.78
2023-04-17T20:16:16.255Z,100249.31
2023-04-17T20:19:19.367Z,100248.09
2023-04-17T20:22:22.437Z,100251.06
2023-04-17T20:25:24.954Z,100249.03
2023-04-17T20:28:29.180Z,100251.38
2023-04-17T20:31:34.032Z,100249.25
2023-04-17T20:34:37.023Z,100254.13
2023-04-17T20:37:40.750Z,100251.75
2023-04-17T20:40:43.678Z,100262.91
2023-04-17T20:43:55.638Z,100266.03
2023-04-17T20:46:58.784Z,100261.19
2023-04-17T20:50:01.523Z,100269.03
2023-04-17T20:53:04.952Z,100274.38
2023-04-17T20:56:07.557Z,100282.09
2023-04-17T20:59:10.749Z,100280.84
2023-04-17T21:02:15.090Z,100281.75
2023-04-17T21:05:19.496Z,100286.34
2023-04-17T21:08:22.024Z,100301.41
2023-04-17T21:11:24.617Z,100299.53
2023-04-17T21:14:28.099Z,100295.31
2023-04-17T21:17:31.053Z,100288.88
2023-04-17T21:20:34.157Z,100284.78
2023-04-17T21:23:36.809Z,100289.50
2023-04-17T21:26:39.244Z,100285.94
2023-04-17T21:29:42.188Z,100282.63
2023-04-17T21:32:46.232Z,100278.72
2023-04-17T21:35:49.033Z,100285.16
2023-04-17T21:38:51.968Z,100284.69
2023-04-17T21:41:54.620Z,100281.84
2023-04-17T21:44:57.390Z,100288.75
2023-04-17T21:48:00.384Z,100291.94
2023-04-17T21:51:04.267Z,100293.31
2023-04-17T21:54:08.507Z,100288.31
2023-04-17T21:57:10.897Z,100288.78
2023-04-17T22:00:14.786Z,100293.34
2023-04-17T22:03:18.221Z,100297.13
2023-04-17T22:06:20.973Z,100308.25
2023-04-17T22:09:23.718Z,100299.19
2023-04-17T22:12:26.716Z,100295.72
2023-04-17T22:15:29.107Z,100295.25
2023-04-17T22:18:32.195Z,100300.59
2023-04-17T22:21:34.680Z,100303.72
2023-04-17T22:24:37.564Z,100301.69
2023-04-17T22:27:40.002Z,100306.53
2023-04-17T22:30:43.316Z,100312.81
2023-04-17T22:33:46.266Z,100315.00
2023-04-17T22:36:49.092Z,100310.00
2023-04-17T22:39:51.582Z,100319.09
2023-04-17T22:42:54.307Z,100325.19
2023-04-17T22:45:56.968Z,100316.09
2023-04-17T22:49:00.885Z,100332.72
2023-04-17T22:52:06.723Z,100325.34
2023-04-17T22:55:10.069Z,100327.84
2023-04-17T22:58:12.453Z,100330.06
2023-04-17T23:01:15.528Z,100324.41
2023-04-17T23:04:18.274Z,100326.44
2023-04-17T23:07:21.156Z,100328.97
2023-04-17T23:10:23.785Z,100329.28
2023-04-17T23:13:27.678Z,100326.44
2023-04-17T23:16:30.425Z,100319.84
2023-04-17T23:19:33.678Z,100323.63
2023-04-17T23:22:36.586Z,100325.34
2023-04-17T23:25:39.800Z,100321.13
2023-04-17T23:28:42.264Z,100321.13
2023-04-17T23:31:45.750Z,100315.47
2023-04-17T23:34:48.272Z,100312.34
2023-04-17T23:37:52.073Z,100316.25
2023-04-17T23:40:54.792Z,100311.22
2023-04-17T23:43:57.540Z,100319.09
2023-04-17T23:47:00.911Z,100315.00
2023-04-17T23:50:05.926Z,100317.81
2023-04-17T23:53:08.542Z,100315.97
2023-04-17T23:56:11.433Z,100317.06
2023-04-17T23:59:14.186Z,100310.94
